Terminal Aerodrome Forecast
Issued by NWS

Current Version | Previous Version | Text Only | Print | Product List | Glossary Off
Versions: 1 2 3 4 5 6 7 8 9 10 11 12 13 14 15 16 17

000
FTUS41 KPBZ 150523
TAFHLG
TAF
KHLG 150523Z 1506/1606 18005KT P6SM SKC
     FM150800 20008KT P6SM SCT250 WS020/22040KT
     FM151300 20015G25KT P6SM SCT040
     FM152100 25020G30KT 5SM -SHRA OVC035
     FM152300 29015G25KT P6SM VCSH BKN025=

USA.gov is the U.S. government's official web portal to all federal, state and local government web resources and services.